This is the latest recevied weather packets stored in our database for station/object WC4PEM-12. If no packets are shown the sender has not sent any weather packets the latest 10 day(s).
| Time | Temp. | Humidity | Pressure | Rain* | Wind** | Luminosity | Snow |
|---|---|---|---|---|---|---|---|
| 1778006366 | 31.67° C | 48% | 1014.7 hPa | 0 mm | - | - | - |
| 1778006317 | 31.67° C | 48% | 1014.7 hPa | 0 mm | - | - | - |
| 1778006275 | 31.67° C | 48% | 1014.7 hPa | 0 mm | - | - | - |
| 1778005975 | 31.67° C | 49% | 1015.1 hPa | 0 mm | - | - | - |
| 1778005675 | 31.11° C | 53% | 1015.2 hPa | 0 mm | - | - | - |
| 1778005515 | 31.11° C | 50% | 1015.3 hPa | 0 mm | - | - | - |
| 1778005375 | 31.11° C | 50% | 1015.3 hPa | 0 mm | - | - | - |
| 1778005075 | 31.11° C | 50% | 1015.2 hPa | 0 mm | - | - | - |
| 1778004916 | 31.11° C | 50% | 1015.3 hPa | 0 mm | - | - | - |
| 1778004775 | 31.11° C | 50% | 1015.3 hPa | 0 mm | - | - | - |
| 1778004175 | 31.11° C | 51% | 1015.4 hPa | 0 mm | - | - | - |
| 1778003791 | 31.11° C | 52% | 1015.4 hPa | 0 mm | - | - | - |
| 1778002975 | 30.56° C | 56% | 1015.6 hPa | 0 mm | - | - | - |
| 1778002675 | 30.56° C | 52% | 1015.7 hPa | 0 mm | - | - | - |
| 1778002540 | 29.44° C | 55% | 1015.9 hPa | 0 mm | - | - | - |
| 1778002375 | 30° C | 51% | 1015.7 hPa | 0 mm | - | - | - |
| 1778002202 | 30.56° C | 51% | 1015.5 hPa | 0 mm | - | - | - |
| 1778002075 | 30.56° C | 51% | 1015.5 hPa | 0 mm | - | - | - |
| 1778001775 | 30° C | 50% | 1015.7 hPa | 0 mm | - | - | - |
| 1778001592 | 30° C | 54% | 1015.6 hPa | 0 mm | - | - | - |
| 1778001518 | 30° C | 54% | 1015.6 hPa | 0 mm | - | - | - |
| 1778001475 | 30° C | 54% | 1015.6 hPa | 0 mm | - | - | - |
| 1778001175 | 30° C | 54% | 1015.7 hPa | 0 mm | - | - | - |
| 1778000875 | 29.44° C | 54% | 1015.6 hPa | 0 mm | - | - | - |
| 1778000702 | 29.44° C | 55% | 1015.9 hPa | 0 mm | - | - | - |
* Rain latest hour (hover to see other rain measurements)
** Current wind speed in m/s (hover to see current wind gust speed)